Time;durP1;ratioP1;P1;durP2;ratioP2;P2;SDS_P1;SDS_P2;PMS_P1;PMS_P2;Temp;Humidity;BMP_temperature;BMP_pressure;BME280_temperature;BME280_humidity;BME280_pressure;Samples;Min_cycle;Max_cycle;Signal;HPM_P1;HPM_P2
2022/05/01 00:02:13;;;;;;;16.83;12.20;;;;;;;;;;4994295;28;20034;-79
2022/05/01 00:04:39;;;;;;;14.52;11.90;;;;;;;;;;5026280;28;20045;-80
2022/05/01 00:07:06;;;;;;;14.75;12.38;;;;;;;;;;4994367;28;20918;-79
2022/05/01 00:09:33;;;;;;;14.55;12.13;;;;;;;;;;5026338;28;20132;-79
2022/05/01 00:11:59;;;;;;;17.15;11.88;;;;;;;;;;5010101;28;20508;-79
2022/05/01 00:14:25;;;;;;;15.82;12.52;;;;;;;;;;5010238;28;20060;-79
2022/05/01 00:16:52;;;;;;;13.57;11.38;;;;;;;;;;5010784;28;20037;-79
2022/05/01 00:19:18;;;;;;;14.35;11.80;;;;;;;;;;5034473;28;20099;-78
2022/05/01 00:21:44;;;;;;;14.13;11.68;;;;;;;;;;5037987;28;20041;-79
2022/05/01 00:24:10;;;;;;;17.70;13.07;;;;;;;;;;5030198;28;20018;-79
2022/05/01 00:26:36;;;;;;;16.48;12.98;;;;;;;;;;5026970;28;20061;-79
2022/05/01 00:29:02;;;;;;;16.23;13.15;;;;;;;;;;5025792;28;20128;-79
2022/05/01 00:31:29;;;;;;;20.25;13.45;;;;;;;;;;5016626;28;20464;-80
2022/05/01 00:36:42;;;;;;;17.35;13.63;;;;;;;;;;5027946;28;20045;-80
2022/05/01 00:39:09;;;;;;;19.08;15.65;;;;;;;;;;5005539;28;20128;-79
2022/05/01 00:41:36;;;;;;;19.77;15.43;;;;;;;;;;5026943;28;20084;-80
2022/05/01 00:44:06;;;;;;;18.58;15.32;;;;;;;;;;5026053;28;20054;-80
2022/05/01 00:46:42;;;;;;;19.35;15.15;;;;;;;;;;5027501;28;20067;-79
2022/05/01 00:49:10;;;;;;;20.63;16.02;;;;;;;;;;4991831;28;20119;-80
2022/05/01 00:51:41;;;;;;;20.33;15.77;;;;;;;;;;5008839;28;20125;-80
2022/05/01 00:54:07;;;;;;;19.52;16.55;;;;;;;;;;5026279;28;20037;-79
2022/05/01 00:56:40;;;;;;;23.17;17.20;;;;;;;;;;5008011;28;20049;-79
2022/05/01 00:59:06;;;;;;;25.88;18.02;;;;;;;;;;5009024;28;20056;-80
2022/05/01 01:01:34;;;;;;;21.45;17.30;;;;;;;;;;5025256;28;20103;-79
2022/05/01 01:04:00;;;;;;;23.60;17.33;;;;;;;;;;5009609;28;20535;-80
2022/05/01 01:06:29;;;;;;;21.45;16.92;;;;;;;;;;5026052;28;20148;-80
2022/05/01 01:08:55;;;;;;;24.55;17.88;;;;;;;;;;5026948;28;20497;-80
2022/05/01 01:11:21;;;;;;;22.48;17.35;;;;;;;;;;4991405;28;20379;-80
2022/05/01 01:13:48;;;;;;;23.30;17.85;;;;;;;;;;5008527;28;20073;-80
2022/05/01 01:16:14;;;;;;;20.70;16.30;;;;;;;;;;5027087;28;20064;-80
2022/05/01 01:18:40;;;;;;;21.92;16.40;;;;;;;;;;5023165;28;20155;-80
2022/05/01 01:21:10;;;;;;;22.65;17.10;;;;;;;;;;5008882;28;20111;-79
2022/05/01 01:23:36;;;;;;;22.98;17.73;;;;;;;;;;5007403;28;20050;-80
2022/05/01 01:26:04;;;;;;;25.95;18.42;;;;;;;;;;5024571;28;20526;-80
2022/05/01 01:28:31;;;;;;;26.38;17.85;;;;;;;;;;5042585;28;20068;-80
2022/05/01 01:33:43;;;;;;;25.80;18.15;;;;;;;;;;5026804;28;20100;-80
2022/05/01 01:36:10;;;;;;;23.95;18.15;;;;;;;;;;5015107;28;20216;-80
2022/05/01 01:38:39;;;;;;;22.58;18.38;;;;;;;;;;5008032;28;20060;-80
2022/05/01 01:41:08;;;;;;;26.63;18.75;;;;;;;;;;5025135;28;20037;-80
2022/05/01 01:43:34;;;;;;;28.88;18.45;;;;;;;;;;5035573;28;20041;-80
2022/05/01 01:46:01;;;;;;;26.80;18.80;;;;;;;;;;5028220;28;20049;-80
2022/05/01 01:48:27;;;;;;;24.58;18.30;;;;;;;;;;5027225;28;20045;-80
2022/05/01 01:51:00;;;;;;;23.80;17.77;;;;;;;;;;5040997;28;20041;-80
2022/05/01 01:53:27;;;;;;;23.90;17.38;;;;;;;;;;5024485;28;20045;-80
2022/05/01 01:55:53;;;;;;;25.85;17.02;;;;;;;;;;5026633;28;20033;-80
2022/05/01 01:58:19;;;;;;;20.98;16.17;;;;;;;;;;5023360;28;20776;-80
2022/05/01 02:00:45;;;;;;;22.88;16.27;;;;;;;;;;5033210;28;20081;-80
2022/05/01 02:03:11;;;;;;;22.83;17.35;;;;;;;;;;5007946;28;20041;-80
2022/05/01 02:05:38;;;;;;;21.70;15.68;;;;;;;;;;5025628;28;20119;-79
2022/05/01 02:08:07;;;;;;;26.85;18.02;;;;;;;;;;5008219;28;20057;-80
2022/05/01 02:10:33;;;;;;;22.05;17.25;;;;;;;;;;5006385;28;20029;-80
2022/05/01 02:13:02;;;;;;;26.92;18.10;;;;;;;;;;5009025;28;20045;-80
2022/05/01 02:15:32;;;;;;;17.77;14.50;;;;;;;;;;4990328;28;20043;-80
2022/05/01 02:17:59;;;;;;;18.98;15.20;;;;;;;;;;4991166;28;20123;-80
2022/05/01 02:20:27;;;;;;;20.17;15.15;;;;;;;;;;5007895;28;20056;-80
2022/05/01 02:22:53;;;;;;;18.58;14.18;;;;;;;;;;4991355;28;20042;-79
2022/05/01 02:25:21;;;;;;;17.90;14.18;;;;;;;;;;4992261;28;20467;-80
2022/05/01 02:27:47;;;;;;;20.77;15.60;;;;;;;;;;5025312;28;20053;-80
2022/05/01 02:30:14;;;;;;;20.02;15.70;;;;;;;;;;5006866;28;20045;-80
2022/05/01 02:32:40;;;;;;;21.00;16.13;;;;;;;;;;4990088;28;20049;-80
2022/05/01 02:35:07;;;;;;;22.17;16.67;;;;;;;;;;5021298;28;20049;-82
2022/05/01 02:37:33;;;;;;;23.52;18.60;;;;;;;;;;4990631;28;20515;-81
2022/05/01 02:39:59;;;;;;;20.10;15.85;;;;;;;;;;5026726;28;20052;-81
2022/05/01 02:42:25;;;;;;;19.20;16.08;;;;;;;;;;5038814;28;20053;-80
2022/05/01 02:44:51;;;;;;;23.75;17.13;;;;;;;;;;5040096;28;20050;-79
2022/05/01 02:47:17;;;;;;;19.02;15.68;;;;;;;;;;5042344;28;20060;-79
2022/05/01 02:49:43;;;;;;;18.48;15.45;;;;;;;;;;5027284;28;20049;-81
2022/05/01 02:52:10;;;;;;;19.17;14.82;;;;;;;;;;5026705;28;20043;-81
2022/05/01 02:54:36;;;;;;;19.77;15.32;;;;;;;;;;5024634;28;20076;-81
2022/05/01 02:57:03;;;;;;;16.13;13.93;;;;;;;;;;5025165;28;20049;-81
2022/05/01 02:59:29;;;;;;;19.85;14.30;;;;;;;;;;5006679;28;20046;-81
2022/05/01 03:01:55;;;;;;;19.95;14.25;;;;;;;;;;5008033;28;20187;-82
2022/05/01 03:04:21;;;;;;;20.40;14.85;;;;;;;;;;5007216;28;20513;-81
2022/05/01 03:06:48;;;;;;;18.65;14.55;;;;;;;;;;5025428;28;20034;-80
2022/05/01 03:09:14;;;;;;;21.30;14.65;;;;;;;;;;5009484;28;20042;-80
2022/05/01 03:11:40;;;;;;;18.73;13.90;;;;;;;;;;5006308;28;20140;-80
2022/05/01 03:14:09;;;;;;;17.65;14.18;;;;;;;;;;4991719;28;20150;-80
2022/05/01 03:16:36;;;;;;;16.70;13.98;;;;;;;;;;5023689;28;20042;-80
2022/05/01 03:24:35;;;;;;;17.80;13.50;;;;;;;;;;5006634;28;20091;-80
2022/05/01 03:27:01;;;;;;;14.27;12.75;;;;;;;;;;5007756;28;20405;-80
2022/05/01 03:29:27;;;;;;;18.35;13.07;;;;;;;;;;5006837;28;20049;-80
2022/05/01 03:31:54;;;;;;;11.45;10.10;;;;;;;;;;4991422;28;20045;-81
2022/05/01 03:34:20;;;;;;;13.15;9.50;;;;;;;;;;5015794;28;20098;-81
2022/05/01 03:36:50;;;;;;;11.23;10.13;;;;;;;;;;5015775;28;20048;-81
2022/05/01 03:39:16;;;;;;;11.90;10.50;;;;;;;;;;5011784;28;20071;-82
2022/05/01 03:41:43;;;;;;;12.30;11.10;;;;;;;;;;5009079;28;20037;-82
2022/05/01 03:44:09;;;;;;;11.43;10.27;;;;;;;;;;5029396;28;20087;-81
2022/05/01 03:46:41;;;;;;;14.68;13.18;;;;;;;;;;5026417;28;20037;-80
2022/05/01 03:49:09;;;;;;;12.00;10.80;;;;;;;;;;4995990;28;20111;-81
2022/05/01 03:51:35;;;;;;;13.38;11.98;;;;;;;;;;5027702;28;20041;-80
2022/05/01 03:54:02;;;;;;;13.32;11.77;;;;;;;;;;5026487;28;20037;-80
2022/05/01 03:56:31;;;;;;;15.02;12.40;;;;;;;;;;5027835;28;20098;-82
2022/05/01 03:58:58;;;;;;;14.20;12.38;;;;;;;;;;5009896;28;20045;-81
2022/05/01 04:01:24;;;;;;;15.57;12.75;;;;;;;;;;5029106;28;20076;-82
2022/05/01 04:03:51;;;;;;;15.15;12.65;;;;;;;;;;4994672;28;20069;-81
2022/05/01 04:06:17;;;;;;;15.77;13.10;;;;;;;;;;5028248;28;20501;-80
2022/05/01 04:08:43;;;;;;;16.55;12.30;;;;;;;;;;5009373;28;20433;-81
2022/05/01 04:11:10;;;;;;;13.88;11.57;;;;;;;;;;5009498;28;20053;-80
2022/05/01 04:13:36;;;;;;;14.40;12.18;;;;;;;;;;5009227;28;20053;-80
2022/05/01 04:16:03;;;;;;;16.05;12.57;;;;;;;;;;4992011;28;20050;-81
2022/05/01 04:18:31;;;;;;;15.32;12.98;;;;;;;;;;5010440;28;20116;-81
2022/05/01 04:20:57;;;;;;;15.73;13.80;;;;;;;;;;5008961;28;20494;-80
2022/05/01 04:23:24;;;;;;;16.52;13.02;;;;;;;;;;5010267;28;20493;-80
2022/05/01 04:25:50;;;;;;;15.23;12.50;;;;;;;;;;4991394;28;20052;-81
2022/05/01 04:28:17;;;;;;;14.82;12.25;;;;;;;;;;5024017;28;20505;-80
2022/05/01 04:30:44;;;;;;;14.55;12.48;;;;;;;;;;5024696;28;20046;-80
2022/05/01 04:33:13;;;;;;;14.60;11.18;;;;;;;;;;5020528;28;20615;-80
2022/05/01 04:35:43;;;;;;;14.57;12.18;;;;;;;;;;5014528;28;20037;-80
2022/05/01 04:38:19;;;;;;;13.07;11.77;;;;;;;;;;5011539;28;20372;-79
2022/05/01 04:40:47;;;;;;;20.60;12.13;;;;;;;;;;5008104;28;20060;-79
2022/05/01 04:43:16;;;;;;;19.33;12.02;;;;;;;;;;5018933;28;20041;-80
2022/05/01 04:45:43;;;;;;;14.63;12.75;;;;;;;;;;5004013;28;20050;-81
2022/05/01 04:48:10;;;;;;;16.77;13.05;;;;;;;;;;5004284;28;20099;-80
2022/05/01 04:50:36;;;;;;;16.45;13.65;;;;;;;;;;5022590;28;20033;-79
2022/05/01 04:53:03;;;;;;;14.05;12.57;;;;;;;;;;5004702;28;20050;-79
2022/05/01 04:55:32;;;;;;;14.68;12.05;;;;;;;;;;5001622;28;20095;-80
2022/05/01 04:57:59;;;;;;;13.88;11.38;;;;;;;;;;5020353;28;20111;-79
2022/05/01 05:00:26;;;;;;;15.27;13.13;;;;;;;;;;5018619;28;21231;-79
2022/05/01 05:02:53;;;;;;;12.55;9.90;;;;;;;;;;5021715;28;20053;-79
2022/05/01 05:05:20;;;;;;;10.90;9.80;;;;;;;;;;5022680;28;20076;-80
2022/05/01 05:07:47;;;;;;;14.27;9.98;;;;;;;;;;5000455;28;20037;-79
2022/05/01 05:10:14;;;;;;;10.90;9.80;;;;;;;;;;5021511;28;20042;-79
2022/05/01 05:12:42;;;;;;;11.77;10.57;;;;;;;;;;5022411;28;20029;-78
2022/05/01 05:15:09;;;;;;;13.02;11.15;;;;;;;;;;5022484;28;20119;-79
2022/05/01 05:17:36;;;;;;;16.10;13.52;;;;;;;;;;5018302;28;20234;-79
2022/05/01 05:20:03;;;;;;;18.17;14.52;;;;;;;;;;5004449;28;20069;-80
2022/05/01 05:22:29;;;;;;;19.52;14.90;;;;;;;;;;5021190;28;20050;-80
2022/05/01 05:24:56;;;;;;;20.90;16.65;;;;;;;;;;5006192;28;20505;-78
2022/05/01 05:27:25;;;;;;;19.42;15.88;;;;;;;;;;5019329;28;20046;-79
2022/05/01 05:29:58;;;;;;;21.90;16.83;;;;;;;;;;5018752;28;20069;-80
2022/05/01 05:32:25;;;;;;;22.23;17.73;;;;;;;;;;5021852;28;20045;-81
2022/05/01 05:34:51;;;;;;;23.60;18.08;;;;;;;;;;5023313;28;20037;-79
2022/05/01 05:37:18;;;;;;;26.27;18.30;;;;;;;;;;5019838;28;20053;-79
2022/05/01 05:39:44;;;;;;;27.67;18.90;;;;;;;;;;5018969;28;20057;-80
2022/05/01 05:42:11;;;;;;;23.20;17.23;;;;;;;;;;5020476;28;20037;-79
2022/05/01 05:44:37;;;;;;;24.83;17.17;;;;;;;;;;5019204;28;20128;-79
2022/05/01 05:47:10;;;;;;;21.33;17.23;;;;;;;;;;5019940;28;20099;-79
2022/05/01 05:49:36;;;;;;;23.40;17.50;;;;;;;;;;5001779;28;20099;-80
2022/05/01 05:52:02;;;;;;;21.23;16.45;;;;;;;;;;5022342;28;20053;-79
2022/05/01 05:54:28;;;;;;;23.08;17.15;;;;;;;;;;5020177;28;20555;-78
2022/05/01 05:56:55;;;;;;;21.92;16.38;;;;;;;;;;5021441;28;20037;-80
2022/05/01 05:59:29;;;;;;;20.50;16.27;;;;;;;;;;5007050;28;20053;-80
2022/05/01 06:01:55;;;;;;;18.73;15.75;;;;;;;;;;4986537;28;20398;-80
2022/05/01 06:04:21;;;;;;;25.45;15.23;;;;;;;;;;5022611;28;20048;-80
2022/05/01 06:06:47;;;;;;;21.67;14.65;;;;;;;;;;5022488;28;20041;-80
2022/05/01 06:09:13;;;;;;;18.73;14.48;;;;;;;;;;5023784;28;20048;-80
2022/05/01 06:11:41;;;;;;;19.65;15.25;;;;;;;;;;5021585;28;20093;-79
2022/05/01 06:14:07;;;;;;;21.58;14.68;;;;;;;;;;5024343;28;20128;-79
2022/05/01 06:16:33;;;;;;;18.63;15.40;;;;;;;;;;5021078;28;20041;-79
2022/05/01 06:19:10;;;;;;;18.60;14.15;;;;;;;;;;5024659;28;20045;-79
2022/05/01 06:21:36;;;;;;;19.85;13.90;;;;;;;;;;5014071;28;20053;-81
2022/05/01 06:24:04;;;;;;;20.02;14.13;;;;;;;;;;5022474;28;20041;-78
2022/05/01 06:26:33;;;;;;;23.00;15.82;;;;;;;;;;5028337;28;20057;-79
2022/05/01 06:29:02;;;;;;;21.35;15.05;;;;;;;;;;5021906;28;20188;-78
2022/05/01 06:31:29;;;;;;;19.05;15.15;;;;;;;;;;5010587;28;20034;-81
2022/05/01 06:33:55;;;;;;;18.83;15.32;;;;;;;;;;5023330;28;20090;-79
2022/05/01 06:36:22;;;;;;;18.58;15.88;;;;;;;;;;4984050;28;20060;-80
2022/05/01 06:38:48;;;;;;;15.82;13.77;;;;;;;;;;5028696;28;20038;-79
2022/05/01 06:41:14;;;;;;;19.42;13.30;;;;;;;;;;5028943;28;20833;-80
2022/05/01 06:43:40;;;;;;;16.95;13.05;;;;;;;;;;5010373;28;20158;-80
2022/05/01 06:46:07;;;;;;;16.73;12.50;;;;;;;;;;5019796;28;20041;-80
2022/05/01 06:48:33;;;;;;;20.17;12.20;;;;;;;;;;5021765;28;20037;-80
2022/05/01 06:50:59;;;;;;;17.55;13.35;;;;;;;;;;5017124;28;20047;-81
2022/05/01 06:53:25;;;;;;;12.93;11.02;;;;;;;;;;5021804;28;20532;-79
2022/05/01 06:55:53;;;;;;;15.07;11.73;;;;;;;;;;5002365;28;20519;-81
2022/05/01 06:58:20;;;;;;;13.95;11.23;;;;;;;;;;4982366;28;20030;-81
2022/05/01 07:00:46;;;;;;;12.93;10.93;;;;;;;;;;4982605;28;20037;-81
2022/05/01 07:03:15;;;;;;;13.90;11.13;;;;;;;;;;5021072;28;20398;-79
2022/05/01 07:05:41;;;;;;;15.75;10.40;;;;;;;;;;5028932;28;20567;-81
2022/05/01 07:08:16;;;;;;;21.15;11.05;;;;;;;;;;5033209;28;20042;-80
2022/05/01 07:10:43;;;;;;;10.55;8.45;;;;;;;;;;5027231;28;20049;-80
2022/05/01 07:13:13;;;;;;;13.43;9.25;;;;;;;;;;5023619;28;20033;-80
2022/05/01 07:15:43;;;;;;;12.75;9.40;;;;;;;;;;5027677;28;20517;-80
2022/05/01 07:18:12;;;;;;;9.05;7.85;;;;;;;;;;5002932;28;20532;-80
2022/05/01 07:20:39;;;;;;;10.25;6.90;;;;;;;;;;5026132;28;20053;-79
2022/05/01 07:23:06;;;;;;;9.75;5.07;;;;;;;;;;5004089;28;20509;-80
2022/05/01 07:25:32;;;;;;;7.32;5.60;;;;;;;;;;5024457;28;20068;-80
2022/05/01 07:27:58;;;;;;;10.05;7.70;;;;;;;;;;5020565;28;20420;-79
2022/05/01 07:30:25;;;;;;;11.63;7.60;;;;;;;;;;5023760;28;20528;-81
2022/05/01 07:32:51;;;;;;;9.27;6.32;;;;;;;;;;5003879;28;20056;-80
2022/05/01 07:35:17;;;;;;;11.38;7.10;;;;;;;;;;5023923;28;20564;-81
2022/05/01 07:37:43;;;;;;;9.07;7.40;;;;;;;;;;5023439;28;20091;-81
2022/05/01 07:40:10;;;;;;;11.38;7.15;;;;;;;;;;5021409;28;20045;-79
2022/05/01 07:42:36;;;;;;;10.70;6.90;;;;;;;;;;4983839;28;20061;-82
2022/05/01 07:45:03;;;;;;;7.90;5.45;;;;;;;;;;5000959;28;20069;-80
2022/05/01 07:47:35;;;;;;;10.50;6.93;;;;;;;;;;5021093;28;20044;-82
2022/05/01 07:50:01;;;;;;;19.02;7.65;;;;;;;;;;5022247;28;20045;-81
2022/05/01 07:52:27;;;;;;;11.07;7.43;;;;;;;;;;5004253;28;20126;-81
2022/05/01 07:54:53;;;;;;;9.98;6.10;;;;;;;;;;5019808;28;20057;-81
2022/05/01 07:57:20;;;;;;;8.35;6.65;;;;;;;;;;5020499;28;20111;-78
2022/05/01 07:59:47;;;;;;;6.40;4.43;;;;;;;;;;5004958;28;20041;-79
2022/05/01 08:02:13;;;;;;;8.43;3.80;;;;;;;;;;4985595;28;20076;-78
2022/05/01 08:04:39;;;;;;;9.23;4.28;;;;;;;;;;5004117;28;20034;-78
2022/05/01 08:07:06;;;;;;;7.00;5.65;;;;;;;;;;5022749;28;20033;-79
2022/05/01 08:09:32;;;;;;;10.02;5.82;;;;;;;;;;5022472;28;20543;-80
2022/05/01 08:11:59;;;;;;;7.63;5.82;;;;;;;;;;5018932;28;20040;-80
2022/05/01 08:14:25;;;;;;;8.05;5.45;;;;;;;;;;5000745;28;20037;-79
2022/05/01 08:16:54;;;;;;;9.82;6.35;;;;;;;;;;4999618;28;20047;-80
2022/05/01 08:22:05;;;;;;;7.05;5.65;;;;;;;;;;5020167;28;20046;-80
2022/05/01 08:24:32;;;;;;;7.90;5.97;;;;;;;;;;5016167;28;20077;-81
2022/05/01 08:27:04;;;;;;;7.60;4.90;;;;;;;;;;5017263;28;20057;-80
2022/05/01 08:29:31;;;;;;;10.93;5.40;;;;;;;;;;4982311;28;20057;-80
2022/05/01 08:31:58;;;;;;;8.55;4.70;;;;;;;;;;5001479;28;20037;-80
2022/05/01 08:34:24;;;;;;;9.57;4.15;;;;;;;;;;4982859;28;20041;-80
2022/05/01 08:36:50;;;;;;;8.88;3.97;;;;;;;;;;5019265;28;20055;-80
2022/05/01 08:39:16;;;;;;;5.80;3.72;;;;;;;;;;5000546;28;20045;-82
2022/05/01 08:41:42;;;;;;;6.75;4.30;;;;;;;;;;5017379;28;20686;-81
2022/05/01 08:44:13;;;;;;;7.63;4.55;;;;;;;;;;5019154;28;20151;-79
2022/05/01 08:46:58;;;;;;;10.60;5.80;;;;;;;;;;5016110;28;20057;-81
2022/05/01 08:49:25;;;;;;;8.00;4.60;;;;;;;;;;5019614;28;20136;-80
2022/05/01 08:51:52;;;;;;;10.07;4.57;;;;;;;;;;5018404;28;20533;-81
2022/05/01 08:54:18;;;;;;;12.40;4.05;;;;;;;;;;5019537;28;20140;-79
2022/05/01 08:56:45;;;;;;;7.13;4.07;;;;;;;;;;5002018;28;20645;-79
2022/05/01 08:59:12;;;;;;;8.98;4.70;;;;;;;;;;5002666;28;20505;-79
2022/05/01 09:01:39;;;;;;;11.90;4.82;;;;;;;;;;5032080;28;20169;-79
2022/05/01 09:04:06;;;;;;;9.70;3.60;;;;;;;;;;5019336;28;20037;-80
2022/05/01 09:06:36;;;;;;;8.90;4.05;;;;;;;;;;5019501;28;20102;-80
2022/05/01 09:09:09;;;;;;;5.72;3.80;;;;;;;;;;5017956;28;20133;-80
2022/05/01 09:14:22;;;;;;;5.38;3.42;;;;;;;;;;5021554;28;20060;-79
2022/05/01 09:17:07;;;;;;;5.90;4.13;;;;;;;;;;5017814;28;20037;-81
2022/05/01 09:19:33;;;;;;;6.68;3.70;;;;;;;;;;5017317;28;20505;-81
2022/05/01 09:22:00;;;;;;;5.55;3.88;;;;;;;;;;4998727;28;20056;-82
2022/05/01 09:24:27;;;;;;;7.35;3.83;;;;;;;;;;4993852;28;20133;-82
2022/05/01 09:26:54;;;;;;;5.47;3.92;;;;;;;;;;4980019;28;20051;-79
2022/05/01 09:29:23;;;;;;;7.15;4.13;;;;;;;;;;4992585;28;20164;-80
2022/05/01 09:31:55;;;;;;;9.55;3.42;;;;;;;;;;4992795;28;20046;-79
2022/05/01 09:34:26;;;;;;;5.57;3.28;;;;;;;;;;4995593;28;20172;-80
2022/05/01 09:36:53;;;;;;;3.80;3.22;;;;;;;;;;4995730;28;20049;-79
2022/05/01 09:39:20;;;;;;;5.30;3.22;;;;;;;;;;4993081;28;20114;-81
2022/05/01 09:41:52;;;;;;;8.93;3.72;;;;;;;;;;4993943;28;20053;-81
2022/05/01 09:44:23;;;;;;;4.00;3.15;;;;;;;;;;4978047;28;20061;-82
2022/05/01 09:46:51;;;;;;;7.57;3.22;;;;;;;;;;4994407;28;20156;-83
2022/05/01 09:49:18;;;;;;;6.03;3.40;;;;;;;;;;4993148;28;20054;-83
2022/05/01 09:51:48;;;;;;;8.40;3.67;;;;;;;;;;4958196;28;20045;-80
2022/05/01 09:54:21;;;;;;;5.22;3.75;;;;;;;;;;4994343;28;20038;-81
2022/05/01 09:56:48;;;;;;;4.80;3.08;;;;;;;;;;4981749;28;20045;-83
2022/05/01 09:59:14;;;;;;;4.35;2.80;;;;;;;;;;5016969;28;20516;-81
2022/05/01 10:02:01;;;;;;;6.05;2.92;;;;;;;;;;4981162;28;20068;-82
2022/05/01 10:04:28;;;;;;;5.18;3.50;;;;;;;;;;4994864;28;20097;-81
2022/05/01 10:06:55;;;;;;;4.65;2.75;;;;;;;;;;5016763;28;20088;-81
2022/05/01 10:09:25;;;;;;;7.57;2.38;;;;;;;;;;5012927;28;20068;-83
2022/05/01 10:11:56;;;;;;;5.20;2.90;;;;;;;;;;5018827;28;20050;-83
2022/05/01 10:14:22;;;;;;;6.50;3.00;;;;;;;;;;5013523;28;20432;-81
2022/05/01 10:16:54;;;;;;;7.72;3.25;;;;;;;;;;5017218;28;20077;-81
2022/05/01 10:19:20;;;;;;;5.55;2.70;;;;;;;;;;5016478;28;20378;-82
2022/05/01 10:21:50;;;;;;;7.05;3.35;;;;;;;;;;5020274;28;20048;-81
2022/05/01 10:24:17;;;;;;;15.68;3.92;;;;;;;;;;5021536;28;20095;-82
2022/05/01 10:27:02;;;;;;;3.45;2.85;;;;;;;;;;5000401;28;20473;-82
2022/05/01 10:29:28;;;;;;;4.07;2.65;;;;;;;;;;5016181;28;20054;-82
2022/05/01 10:32:22;;;;;;;9.45;3.38;;;;;;;;;;5019490;28;20445;-82
2022/05/01 10:35:04;;;;;;;6.50;3.28;;;;;;;;;;5005716;28;20050;-82
2022/05/01 10:37:36;;;;;;;6.82;3.30;;;;;;;;;;5020285;28;21008;-82
2022/05/01 10:40:03;;;;;;;7.65;3.38;;;;;;;;;;4998481;28;20034;-81
2022/05/01 10:42:38;;;;;;;6.88;2.60;;;;;;;;;;5021851;28;20043;-83
2022/05/01 10:45:30;;;;;;;4.68;2.55;;;;;;;;;;5021343;28;20050;-82
2022/05/01 10:47:57;;;;;;;7.25;3.10;;;;;;;;;;4989670;28;20189;-81
2022/05/01 10:50:26;;;;;;;3.20;2.50;;;;;;;;;;5023498;28;20056;-82
2022/05/01 10:53:09;;;;;;;4.82;2.63;;;;;;;;;;5022522;28;20570;-80
2022/05/01 10:55:45;;;;;;;5.00;2.95;;;;;;;;;;5024192;28;20066;-82
2022/05/01 10:58:23;;;;;;;5.63;2.42;;;;;;;;;;5018833;28;20804;-80
2022/05/01 11:00:50;;;;;;;3.33;2.47;;;;;;;;;;5022787;28;20045;-81
2022/05/01 11:03:23;;;;;;;8.45;2.53;;;;;;;;;;5023197;28;20073;-80
2022/05/01 11:05:54;;;;;;;5.13;2.25;;;;;;;;;;5021653;28;20508;-81
2022/05/01 11:08:23;;;;;;;5.30;2.70;;;;;;;;;;5021636;28;20522;-81
2022/05/01 11:10:51;;;;;;;3.50;2.00;;;;;;;;;;5004839;28;20053;-80
2022/05/01 11:13:20;;;;;;;9.93;2.28;;;;;;;;;;5023319;28;20045;-82
2022/05/01 11:15:47;;;;;;;5.10;2.22;;;;;;;;;;5030178;28;20047;-81
2022/05/01 11:18:14;;;;;;;3.45;2.20;;;;;;;;;;5031881;28;20042;-81
2022/05/01 11:20:40;;;;;;;5.70;2.17;;;;;;;;;;5000560;28;20041;-82
2022/05/01 11:23:25;;;;;;;9.88;2.22;;;;;;;;;;5011837;28;20065;-82
2022/05/01 11:26:05;;;;;;;6.65;2.28;;;;;;;;;;5014578;28;20060;-80
2022/05/01 11:28:47;;;;;;;4.63;2.10;;;;;;;;;;5026201;28;20555;-80
2022/05/01 11:31:31;;;;;;;4.70;2.13;;;;;;;;;;5027114;28;20044;-80
2022/05/01 11:34:16;;;;;;;3.95;2.42;;;14.20;99.90;;;;;;5027677;28;20044;-83
2022/05/01 11:36:54;;;;;;;8.52;2.38;;;;;;;;;;5021080;28;20220;-81
2022/05/01 11:39:43;;;;;;;6.35;2.20;;;;;;;;;;5023243;28;20049;-80
2022/05/01 11:42:40;;;;;;;5.25;1.90;;;;;;;;;;5021377;28;20037;-81
2022/05/01 11:45:08;;;;;;;6.78;2.00;;;;;;;;;;4991685;28;20073;-81
2022/05/01 11:47:34;;;;;;;5.47;2.20;;;;;;;;;;5020787;28;20057;-82
2022/05/01 11:50:01;;;;;;;7.63;2.25;;;;;;;;;;5020862;28;20049;-79
2022/05/01 11:52:27;;;;;;;3.53;2.00;;;;;;;;;;5019438;28;20511;-81
2022/05/01 11:54:57;;;;;;;7.00;2.45;;;;;;;;;;5002708;28;20117;-83
2022/05/01 12:03:00;;;;;;;6.93;2.40;;;;;;;;;;5020185;28;20160;-79
2022/05/01 12:05:27;;;;;;;14.43;2.67;;;;;;;;;;5025326;28;20041;-81
2022/05/01 12:07:57;;;;;;;9.40;2.35;;;;;;;;;;5020537;28;20034;-81
2022/05/01 12:10:23;;;;;;;3.70;2.40;;;;;;;;;;5006380;28;20388;-82
2022/05/01 12:12:50;;;;;;;7.90;1.83;;;;;;;;;;5001000;28;20034;-80
2022/05/01 12:15:16;;;;;;;5.82;2.00;;;;;;;;;;5023089;28;20045;-80
2022/05/01 12:17:42;;;;;;;4.32;1.63;;;;;;;;;;5004156;28;20124;-80
2022/05/01 12:20:09;;;;;;;14.82;2.50;;;;;;;;;;5019159;28;20037;-80
2022/05/01 12:22:38;;;;;;;4.57;1.90;;;;;;;;;;5004232;28;20049;-79
2022/05/01 12:25:10;;;;;;;5.22;2.22;;;;;;;;;;5001335;28;20041;-80
2022/05/01 12:27:40;;;;;;;3.58;2.63;;;;;;;;;;5019956;28;20410;-79
2022/05/01 12:30:06;;;;;;;4.85;1.92;;;;;;;;;;5026201;28;20171;-80
2022/05/01 12:32:32;;;;;;;3.28;1.90;;;;;;;;;;5009414;28;20049;-80
2022/05/01 12:35:00;;;;;;;15.90;3.20;;;;;;;;;;5039855;28;20049;-81
2022/05/01 12:37:30;;;;;;;8.02;2.25;;;;;;;;;;5009641;28;20052;-81
2022/05/01 12:39:57;;;;;;;11.30;3.42;;;;;;;;;;5009291;28;20061;-82
2022/05/01 12:45:21;;;;;;;2.90;2.45;;;;;;;;;;5031380;28;20053;-80
2022/05/01 12:47:51;;;;;;;4.22;2.15;;;;;;;;;;5029230;28;20048;-81
2022/05/01 12:50:21;;;;;;;5.80;2.28;;;;;;;;;;5014108;28;20480;-80
2022/05/01 12:52:48;;;;;;;7.85;2.55;;;;;;;;;;5027782;28;20375;-80
2022/05/01 12:55:43;;;;;;;4.47;2.00;;;;;;;;;;5025221;28;20034;-80
2022/05/01 12:58:11;;;;;;;3.10;1.95;;;;;;;;;;4983566;28;20072;-81
2022/05/01 13:00:45;;;;;;;4.35;1.80;;;;;;;;;;5010017;28;20050;-81
2022/05/01 13:03:30;;;;;;;43.63;5.07;;;;;;;;;;4988428;28;20112;-80
2022/05/01 13:05:56;;;;;;;22.20;3.10;;;;;;;;;;5005104;28;20055;-80
2022/05/01 13:08:22;;;;;;;11.63;2.33;;;;;;;;;;5020643;28;20073;-81
2022/05/01 13:11:08;;;;;;;8.93;2.33;;;;;;;;;;5004775;28;20096;-81
2022/05/01 13:13:58;;;;;;;4.85;1.77;;;;;;;;;;4998674;28;20056;-82
2022/05/01 13:16:32;;;;;;;19.88;3.58;;;;;;;;;;5017678;28;20049;-81
2022/05/01 13:18:59;;;;;;;3.38;1.73;;;;;;;;;;4990658;28;20064;-81
2022/05/01 13:21:30;;;;;;;16.85;3.67;;;;;;;;;;5026186;28;20139;-83
2022/05/01 13:24:17;;;;;;;20.75;3.72;;;;;;;;;;5025671;28;20045;-82
2022/05/01 13:26:43;;;;;;;18.30;3.53;;;;;;;;;;5002294;28;20056;-81
2022/05/01 13:29:11;;;;;;;5.80;2.40;;;;;;;;;;5014831;28;20060;-82
2022/05/01 13:31:38;;;;;;;11.77;2.60;;;;;;;;;;5002799;28;20137;-81
2022/05/01 13:34:04;;;;;;;9.40;2.42;;;;;;;;;;5004037;28;20084;-82
2022/05/01 13:36:31;;;;;;;24.65;3.08;;;;;;;;;;5000559;28;20479;-80
2022/05/01 13:39:03;;;;;;;15.95;2.78;;;;;;;;;;4989544;28;20041;-80
2022/05/01 13:47:00;;;;;;;11.48;2.55;;;;;;;;;;5001213;28;20049;-81
2022/05/01 13:49:26;;;;;;;12.40;2.78;;;;;;;;;;5001008;28;20099;-81
2022/05/01 13:51:53;;;;;;;7.00;2.22;;;;;;;;;;5001557;28;20501;-79
2022/05/01 13:54:19;;;;;;;6.72;2.50;;;;;;;;;;4997968;28;20076;-79
2022/05/01 13:56:46;;;;;;;19.67;2.55;;;;;;;;;;4999140;28;20460;-81
2022/05/01 13:59:14;;;;;;;3.45;2.00;;;;;;;;;;4981718;28;20117;-81
2022/05/01 14:01:40;;;;;;;14.70;3.17;;;;;;;;;;5017933;28;20123;-80
2022/05/01 14:04:07;;;;;;;9.63;2.15;;;;;;;;;;5013701;28;20048;-80
2022/05/01 14:06:33;;;;;;;9.82;2.60;;;;;;;;;;5014023;28;20056;-81
2022/05/01 14:08:59;;;;;;;14.07;2.75;;;;;;;;;;5019757;28;20174;-81
2022/05/01 14:11:28;;;;;;;8.10;2.58;;;;;;;;;;4999670;28;20123;-81
2022/05/01 14:13:55;;;;;;;5.40;2.40;;;;;;;;;;5001753;28;20155;-80
2022/05/01 14:16:21;;;;;;;5.05;1.90;;;;;;;;;;4998816;28;20049;-80
2022/05/01 14:18:48;;;;;;;6.75;2.60;;;;;;;;;;5016864;28;20056;-81
2022/05/01 14:21:16;;;;;;;5.82;2.00;;;;;;;;;;4998613;28;20042;-81
2022/05/01 14:23:43;;;;;;;3.90;1.73;;;;;;;;;;5019142;28;20397;-81
2022/05/01 14:26:10;;;;;;;3.28;1.50;;;;;;;;;;5018463;28;20053;-81
2022/05/01 14:28:39;;;;;;;6.30;2.20;;;;;;;;;;5015486;28;20061;-80
2022/05/01 14:31:12;;;;;;;8.98;3.08;;;;;;;;;;4985396;28;20049;-80
2022/05/01 14:33:43;;;;;;;5.65;2.15;;;;;;;;;;5011973;28;20041;-79
2022/05/01 14:36:12;;;;;;;3.78;1.70;;;;;;;;;;5011978;28;20442;-79
2022/05/01 14:38:44;;;;;;;5.03;2.22;;;;;;;;;;5014182;28;20041;-80
2022/05/01 14:41:17;;;;;;;8.60;2.25;;;;;;;;;;5019732;28;20048;-80
2022/05/01 14:43:44;;;;;;;8.00;1.60;;;;;;;;;;5002298;28;20057;-84
2022/05/01 14:46:11;;;;;;;7.05;1.95;;;;;;;;;;5016688;28;20068;-81
2022/05/01 14:48:41;;;;;;;2.38;1.60;;;;;;;;;;5016175;28;20042;-80
2022/05/01 14:51:08;;;;;;;4.07;1.30;;;;;;;;;;5012427;28;20122;-79
2022/05/01 14:53:36;;;;;;;3.85;1.58;;;;;;;;;;4997089;28;20747;-80
2022/05/01 14:56:03;;;;;;;4.60;1.75;;;;;;;;;;5010938;28;20480;-79
2022/05/01 15:06:46;;;;;;;6.97;1.90;;;15.40;99.90;;;;;;5015695;28;20718;-80
2022/05/01 15:09:14;;;;;;;2.95;1.58;;;;;;;;;;4997035;28;20051;-79
2022/05/01 15:11:40;;;;;;;10.73;2.67;;;;;;;;;;5017069;28;20049;-79
2022/05/01 15:14:06;;;;;;;22.67;5.85;;;;;;;;;;5014157;28;20203;-80
2022/05/01 15:16:40;;;;;;;6.28;2.22;;;;;;;;;;5016462;28;20041;-80